NEODyS-2

Near Earth Objects - Dynamic Site
NEODyS ∴ Observatories ∴ Site 691 ∴ Obs & residuals
Contact »
691  ▹ 
OBSERVATIONS AND RESIDUALS

691-Steward Observatory, Kitt Peak-Spacewatch

Detections | Residuals | Detections & Residuals

[1-200] [201-400] [401-600] [601-800] [801-1000] [1001-1200] [1201-1400] [1401-1600] [1601-1800] [1801-2000] [2001-2200] [2201-2400] [2401-2600] [2601-2800] [2801-3000] [3001-3200] [3201-3400] [3401-3600] [3601-3800] [3801-4000] [4001-4200] [4201-4400] [4401-4600] [4601-4800] [4801-5000] [5001-5200] [5201-5400] [5401-5600] [5601-5800] [5801-6000] [6001-6200] [6201-6400] [6401-6600] [6601-6800] [6801-7000] [7001-7200] [7201-7400] [7401-7600] [7601-7800] [7801-8000] [8001-8200] [8201-8400] [8401-8600] [8601-8800] [8801-9000] [9001-9200] [9201-9400] [9401-9600] [9601-9800] [9801-10000] [10001-10200] [10201-10400] [10401-10600] [10601-10800] [10801-11000] [11001-11200] [11201-11400] [11401-11600] [11601-11800] [11801-12000] [12001-12200] [12201-12400] [12401-12600] [12601-12800] [12801-13000] [13001-13200] [13201-13400] [13401-13600] [13601-13800] [13801-14000] [14001-14200] [14201-14400] [14401-14600] [14601-14800] [14801-15000] [15001-15200] [15201-15400] [15401-15600] [15601-15800] [15801-16000] [16001-16200] [16201-16400] [16401-16600] [16601-16800] [16801-17000] [17001-17200] [17201-17400] [17401-17600] [17601-17800] [17801-18000] [18001-18200] [18201-18400] [18401-18600] [18601-18800] [18801-19000] [19001-19200] [19201-19400] [19401-19600] [19601-19800] [19801-20000] [20001-20200] [20201-20400] [20401-20600] [20601-20800] [20801-21000] [21001-21200] [21201-21400] [21401-21600] [21601-21800] [21801-22000] [22001-22200] [22201-22400] [22401-22600] [22601-22800] [22801-23000] [23001-23200] [23201-23400] [23401-23600] [23601-23800] [23801-24000] [24001-24200] [24201-24400] [24401-24600] [24601-24800] [24801-25000] [25001-25200] [25201-25400] [25401-25600] [25601-25800] [25801-26000] [26001-26200] [26201-26400] [26401-26600] [26601-26800] [26801-27000] [27001-27200] [27201-27400] [27401-27600] [27601-27800] [27801-28000] [28001-28200] [28201-28400] [28401-28600] [28601-28800] [28801-29000] [29001-29200] [29201-29400] [29401-29600] [29601-29800] [29801-30000] [30001-30200] [30201-30400] [30401-30600] [30601-30800] [30801-31000] [31001-31200] [31201-31400] [31401-31600] [31601-31800] [31801-32000] [32001-32200] [32201-32400] [32401-32600] [32601-32800] [32801-33000] [33001-33200] [33201-33400] [33401-33600] [33601-33800] [33801-34000] [34001-34200] [34201-34400] [34401-34600] [34601-34800] [34801-35000] [35001-35200] [35201-35400] [35401-35600] [35601-35800] [35801-36000] [36001-36200] [36201-36400] [36401-36600] [36601-36800] [36801-37000] [37001-37200] [37201-37400] [37401-37600] [37601-37800] [37801-38000] [38001-38200] [38201-38400] [38401-38600] [38601-38800] [38801-39000] [39001-39200] [39201-39400] [39401-39600] [39601-39800] [39801-40000] [40001-40200] [40201-40400] [40401-40600] [40601-40800] [40801-41000] [41001-41200] [41201-41400] [41401-41600] [41601-41800] [41801-42000] [42001-42200] [42201-42400] [42401-42600] [42601-42800] [42801-43000] [43001-43200] [43201-43400] [43401-43600] [43601-43800] [43801-44000] [44001-44200] [44201-44400] [44401-44600] [44601-44800] [44801-45000] [45001-45200] [45201-45400] [45401-45600] [45601-45800] [45801-46000] [46001-46200] [46201-46400] [46401-46600] [46601-46800] [46801-47000] [47001-47200] [47201-47400] [47401-47600] [47601-47800] [47801-48000] [48001-48200] [48201-48400] [48401-48600] [48601-48800] [48801-49000] [49001-49200] [49201-49400] [49401-49600] [49601-49800] [49801-50000] [50001-50200] [50201-50388]

Designation T Tech N Date Right Ascension Declination Apparent Magnitude Star Catalog Site code χ Used A Used M
yr-mo-day precision hr:min:sec precision rms F bias residual deg min sec precision rms F bias residual mag/col rms residual
1999HV1 O C 1999-04-21.27648 1.000E-05 13:23:34.460 1.500E-01 0.600 F 0.113 -0.414 -09° 03' 20.60" 1.000E-01 0.600 F -0.100 0.126 20.4 V 0.70 -0.08 i 691 0.74 Yes Yes
1999HP11 O C 1999-04-22.19692 1.000E-05 11:46:04.700 1.500E-01 0.600 F 0.040 0.107 -00° 20' 20.50" 1.000E-01 0.600 F -0.587 -0.309 20.8 V 0.70 -0.20 i 691 0.55 Yes Yes
1999HP11 O C 1999-04-22.20064 1.000E-05 11:46:04.170 1.500E-01 0.600 F 0.040 -0.019 -00° 20' 20.90" 1.000E-01 0.600 F -0.587 -0.462 22.1 V 0.70 1.10 i 691 0.78 Yes Yes
1999HP11 O C 1999-04-22.20457 1.000E-05 11:46:03.690 1.500E-01 0.600 F 0.040 1.046 -00° 20' 20.70" 1.000E-01 0.600 F -0.587 0.000 21.6 V 0.70 0.60 i 691 1.77 Yes Yes
1999HV1 O C 1999-04-22.22727 1.000E-05 13:22:30.200 1.500E-01 0.600 F 0.113 -0.764 -08° 54' 07.20" 1.000E-01 0.600 F -0.100 0.194 20.8 V 0.70 0.30 i 691 1.35 Yes Yes
1999HV1 O C 1999-04-22.23115 1.000E-05 13:22:30.030 1.500E-01 0.600 F 0.113 0.732 -08° 54' 03.90" 1.000E-01 0.600 F -0.100 1.239 20.5 V 0.70 0.00 i 691 2.42 Yes Yes
1999HP11 O C 1999-05-06.15924 1.000E-05 11:18:41.130 1.500E-01 0.600 F -0.041 -0.058 -00° 57' 23.80" 1.000E-01 0.600 F -1.269 0.406 21.5 V 0.70 0.26 i 691 0.69 Yes Yes
1999HP11 O C 1999-05-06.16658 1.000E-05 11:18:40.360 1.500E-01 0.600 F -0.041 -0.581 -00° 57' 25.70" 1.000E-01 0.600 F -1.269 0.375 20.7 V 0.70 -0.54 i 691 1.16 Yes Yes
1999JO6 O C 1999-05-15.37984 1.000E-05 15:58:57.410 1.500E-01 0.600 F 0.237 0.118 -10° 45' 50.10" 1.000E-01 0.600 F -0.549 0.472 18.3 V 0.70 0.27 i 691 0.82 Yes Yes
1999JO6 O C 1999-05-15.40109 1.000E-05 15:58:55.190 1.500E-01 0.600 F 0.237 0.223 -10° 46' 13.50" 1.000E-01 0.600 F -0.549 0.481 18.2 V 0.70 0.17 i 691 0.89 Yes Yes
1999HP11 O C 1999-05-16.14558 1.000E-05 11:05:30.630 1.500E-01 0.600 F -0.319 -0.593 -01° 51' 10.20" 1.000E-01 0.600 F -0.547 0.100 21.2 V 0.70 -0.19 i 691 1.01 Yes Yes
1999HP11 O C 1999-05-16.15097 1.000E-05 11:05:30.390 1.500E-01 0.600 F -0.319 1.116 -01° 51' 13.00" 1.000E-01 0.600 F -0.547 -0.593 21.1 V 0.70 -0.29 i 691 2.12 Yes Yes
1999HP11 O C 1999-05-16.15685 1.000E-05 11:05:29.940 1.500E-01 0.600 F -0.319 0.155 -01° 51' 14.60" 1.000E-01 0.600 F -0.547 0.105 21.6 V 0.70 0.21 i 691 0.32 Yes Yes
1999HD1 O C 1999-05-17.22140 1.000E-05 13:24:02.250 1.500E-01 0.600 F 0.101 -0.079 +11° 57' 30.30" 1.000E-01 0.600 F 0.067 -0.351 20.7 V 0.70 0.61 i 691 0.61 Yes Yes
1999HD1 O C 1999-05-17.22693 1.000E-05 13:24:01.360 1.500E-01 0.600 F 0.101 -0.284 +11° 57' 46.90" 1.000E-01 0.600 F 0.067 -0.542 20.5 V 0.70 0.41 i 691 1.04 Yes Yes
1999HD1 O C 1999-05-17.23278 1.000E-05 13:24:00.460 1.500E-01 0.600 F 0.101 0.105 +11° 58' 04.30" 1.000E-01 0.600 F 0.067 -0.897 20.7 V 0.70 0.61 i 691 1.52 Yes Yes
1999JZ10 O C 1999-05-19.14659 1.000E-05 13:30:07.750 1.500E-01 0.794 F 0.078 0.538 -09° 07' 15.50" 1.000E-01 0.794 F -0.285 -0.093 18.9 V 0.70 0.35 i 691 0.71 Yes Yes
1999JZ10 O C 1999-05-19.16745 1.000E-05 13:30:05.210 1.500E-01 0.794 F 0.078 0.937 -09° 11' 54.80" 1.000E-01 0.794 F -0.285 -0.780 18.7 V 0.70 0.15 i 691 1.59 Yes Yes
1999JZ10 O C 1999-05-19.19102 1.000E-05 13:30:02.230 1.500E-01 0.794 F 0.078 0.003 -09° 17' 07.60" 1.000E-01 0.794 F -0.285 -0.100 18.8 V 0.70 0.24 i 691 0.13 Yes Yes
1999JZ10 O C 1999-05-19.23654 1.000E-05 13:29:56.580 1.500E-01 0.794 F 0.078 -0.295 -09° 27' 08.40" 1.000E-01 0.794 F -0.285 0.501 18.8 V 0.70 0.23 i 691 0.76 Yes Yes
1999JZ10 O C 1999-05-19.24201 1.000E-05 13:29:55.930 1.500E-01 0.794 F 0.078 0.034 -09° 28' 19.90" 1.000E-01 0.794 F -0.285 0.913 18.9 V 0.70 0.33 i 691 1.19 Yes Yes
1999JZ10 O C 1999-05-19.24760 1.000E-05 13:29:55.240 1.500E-01 0.794 F 0.078 -0.034 -09° 29' 34.00" 1.000E-01 0.794 F -0.285 0.224 18.9 V 0.70 0.33 i 691 0.30 Yes Yes
1999JZ10 O C 1999-05-19.32888 1.000E-05 13:29:45.550 1.500E-01 0.794 F -0.060 -0.246 -09° 47' 12.60" 1.000E-01 0.794 F -0.161 0.001 19.0 V 0.70 0.42 i 691 0.33 Yes Yes
1998VD35 O C 1999-05-22.42272 1.000E-05 20:10:29.240 1.500E-01 0.794 F -0.153 -0.046 -08° 59' 02.30" 1.000E-01 0.794 F 0.226 0.113 20.8 V 0.70 0.28 i 691 0.16 Yes Yes
1998VD35 O C 1999-05-22.42994 1.000E-05 20:10:28.490 1.500E-01 0.794 F -0.153 0.561 -08° 58' 57.30" 1.000E-01 0.794 F 0.226 0.504 21.1 V 0.70 0.58 i 691 0.98 Yes Yes
1998VD35 O C 1999-05-22.43734 1.000E-05 20:10:27.670 1.500E-01 0.794 F -0.153 0.439 -08° 58' 52.90" 1.000E-01 0.794 F 0.226 0.175 20.3 V 0.70 -0.22 i 691 0.62 Yes Yes
1998VD35 O C 1999-05-22.44679 1.000E-05 20:10:26.620 1.500E-01 0.794 F -0.153 0.262 -08° 58' 46.70" 1.000E-01 0.794 F 0.226 0.330 i 691 0.54 Yes No
1998VD35 O C 1999-05-22.45083 1.000E-05 20:10:26.130 1.500E-01 0.794 F -0.153 -0.417 -08° 58' 44.30" 1.000E-01 0.794 F 0.226 0.143 21.4 V 0.70 0.88 i 691 0.58 Yes Yes
1998VD35 O C 1999-05-22.45484 1.000E-05 20:10:25.750 1.500E-01 0.794 F -0.153 0.489 -08° 58' 41.70" 1.000E-01 0.794 F 0.226 0.173 i 691 0.68 Yes No
1998VD35 O C 1999-05-22.45891 1.000E-05 20:10:25.280 1.500E-01 0.794 F -0.153 0.162 -08° 58' 39.40" 1.000E-01 0.794 F 0.226 -0.136 20.8 V 0.70 0.28 i 691 0.28 Yes Yes
1998VD35 O C 1999-05-23.45909 1.000E-05 20:08:41.390 1.500E-01 0.600 F -0.153 -0.243 -08° 48' 05.70" 1.000E-01 0.600 F 0.226 0.017 i 691 0.44 Yes No
1998VD35 O C 1999-05-23.46636 1.000E-05 20:08:40.590 1.500E-01 0.600 F -0.153 0.109 -08° 48' 00.90" 1.000E-01 0.600 F 0.226 0.307 i 691 0.56 Yes No
2011MV1 O C 1999-06-15.17133 1.000E-05 15:38:35.200 1.500E-01 0.600 F -0.112 -0.633 -18° 40' 16.00" 1.000E-01 0.600 F 0.375 -0.115 20.3 V 0.70 0.12 i 691 1.28 Yes Yes
2011MV1 O C 1999-06-15.19332 1.000E-05 15:38:34.350 1.500E-01 0.600 F -0.112 4.582 -18° 39' 52.30" 1.000E-01 0.600 F 0.375 2.343 21.1 V 0.70 0.91 i 691 7.78 No Yes
2011MV1 O C 1999-06-15.21509 1.000E-05 15:38:32.800 1.500E-01 0.600 F -0.112 -0.269 -18° 39' 33.50" 1.000E-01 0.600 F 0.375 0.019 20.6 V 0.70 0.41 i 691 0.54 Yes Yes
1999FP59 O C 1999-06-18.17851 1.000E-05 12:32:50.690 1.500E-01 0.600 F 0.002 -0.362 -04° 52' 47.70" 1.000E-01 0.600 F -0.206 0.073 20.7 V 0.70 -0.12 i 691 0.62 Yes Yes
1999HV1 O C 1999-06-18.18404 1.000E-05 12:51:34.550 1.500E-01 0.600 F 0.158 -0.383 -03° 01' 01.50" 1.000E-01 0.600 F 0.317 0.330 21.3 V 0.70 0.13 i 691 0.85 Yes Yes
1999FP59 O C 1999-06-18.18874 1.000E-05 12:32:51.200 1.500E-01 0.600 F 0.002 -0.421 -04° 52' 51.00" 1.000E-01 0.600 F -0.206 0.623 20.8 V 0.70 -0.02 i 691 1.26 Yes Yes
1999HV1 O C 1999-06-18.19293 1.000E-05 12:51:34.770 1.500E-01 0.600 F 0.158 0.470 -03° 01' 01.10" 1.000E-01 0.600 F 0.317 0.636 21.5 V 0.70 0.33 i 691 1.32 Yes Yes
1999FP59 O C 1999-06-18.19803 1.000E-05 12:32:51.690 1.500E-01 0.600 F 0.002 -0.090 -04° 52' 55.00" 1.000E-01 0.600 F -0.206 0.119 21.0 V 0.70 0.18 i 691 0.25 Yes Yes
1999HV1 O C 1999-06-18.20362 1.000E-05 12:51:34.910 1.500E-01 0.600 F 0.158 -0.384 -03° 01' 00.90" 1.000E-01 0.600 F 0.317 0.723 21.8 V 0.70 0.62 i 691 1.38 Yes Yes
1999KX4 O C 1999-06-21.40964 1.000E-05 21:15:38.250 1.500E-01 0.600 F 0.275 -0.352 -16° 07' 02.50" 1.000E-01 0.600 F 0.222 -0.045 17.8 V 0.70 0.14 a 691 0.59 Yes Yes
1999KX4 O C 1999-06-21.43158 1.000E-05 21:15:37.480 1.500E-01 0.600 F 0.275 -0.419 -16° 07' 40.80" 1.000E-01 0.600 F 0.222 -0.082 17.7 V 0.70 0.04 a 691 0.71 Yes Yes
1999KX4 O C 1999-06-21.45339 1.000E-05 21:15:36.720 1.500E-01 0.600 F 0.275 -0.354 -16° 08' 18.80" 1.000E-01 0.600 F 0.222 -0.106 17.8 V 0.70 0.14 a 691 0.62 Yes Yes
1999ML O C 1999-06-22.41975 1.000E-05 22:15:52.950 1.500E-01 0.600 F 0.234 -0.531 -03° 40' 41.10" 1.000E-01 0.600 F 0.098 0.322 19.0 V 0.70 0.60 i 691 1.04 Yes Yes
1999ML O C 1999-06-22.43753 1.000E-05 22:15:56.270 1.500E-01 0.600 F 0.234 -0.351 -03° 40' 16.50" 1.000E-01 0.600 F 0.098 0.321 18.9 V 0.70 0.50 i 691 0.80 Yes Yes
1999ML O C 1999-06-22.45051 1.000E-05 22:15:58.600 1.500E-01 0.600 F 0.234 -1.584 -03° 39' 58.20" 1.000E-01 0.600 F 0.098 0.652 19.2 V 0.70 0.80 i 691 2.87 Yes Yes
Nereus O C 1999-08-08.37565 1.000E-05 22:15:28.800 1.500E-01 0.600 F -0.065 -0.055 -10° 20' 22.90" 1.000E-01 0.600 F -0.239 0.124 20.3 V 0.70 0.27 a 691 0.23 Yes Yes
Nereus O C 1999-08-08.39738 1.000E-05 22:15:26.880 1.500E-01 0.600 F -0.065 -0.324 -10° 20' 31.20" 1.000E-01 0.600 F -0.239 0.504 21.4 V 0.70 1.37 a 691 1.00 Yes Yes
Nereus O C 1999-08-08.41928 1.000E-05 22:15:24.970 1.500E-01 0.600 F -0.065 -0.249 -10° 20' 40.00" 1.000E-01 0.600 F -0.239 0.428 21.2 V 0.70 1.17 a 691 0.83 Yes Yes
Nut O C 1999-09-03.28927 1.000E-05 23:17:51.720 1.500E-01 0.600 F -0.448 0.348 -04° 33' 54.80" 1.000E-01 0.600 F 0.352 0.101 20.4 V 0.70 -0.02 i 691 0.61 Yes Yes
Nut O C 1999-09-03.31123 1.000E-05 23:17:50.310 1.500E-01 0.600 F -0.448 0.070 -04° 34' 03.40" 1.000E-01 0.600 F 0.352 -0.595 20.2 V 0.70 -0.22 i 691 1.00 Yes Yes
Nut O C 1999-09-03.33340 1.000E-05 23:17:48.940 1.500E-01 0.600 F -0.448 0.601 -04° 34' 11.10" 1.000E-01 0.600 F 0.352 -0.318 20.5 V 0.70 0.08 i 691 1.14 Yes Yes
1999RH33 O C 1999-09-05.42736 1.000E-05 23:39:00.260 1.500E-01 0.600 F -0.474 0.075 -01° 57' 16.10" 1.000E-01 0.600 F 0.387 -0.402 21.1 V 0.70 0.74 i 691 0.68 Yes Yes
1999RH33 O C 1999-09-05.44858 1.000E-05 23:38:58.740 1.500E-01 0.600 F -0.474 -0.022 -01° 57' 38.40" 1.000E-01 0.600 F 0.387 -0.412 20.8 V 0.70 0.44 i 691 0.69 Yes Yes
1999RH33 O C 1999-09-05.46971 1.000E-05 23:38:57.250 1.500E-01 0.600 F -0.474 0.140 -01° 58' 00.60" 1.000E-01 0.600 F 0.387 -0.416 20.4 V 0.70 0.04 i 691 0.73 Yes Yes
1999RJ27 O C 1999-09-06.33790 1.000E-05 00:03:00.860 1.500E-01 0.600 F -0.424 0.020 +01° 42' 50.20" 1.000E-01 0.600 F 0.621 -0.608 20.0 V 0.70 0.32 i 691 1.02 Yes Yes
1999RJ27 O C 1999-09-06.35875 1.000E-05 00:02:58.920 1.500E-01 0.600 F -0.424 -0.957 +01° 41' 48.20" 1.000E-01 0.600 F 0.621 -1.522 19.9 V 0.70 0.22 i 691 3.03 Yes Yes
1999RJ27 O C 1999-09-06.37962 1.000E-05 00:02:57.110 1.500E-01 0.600 F -0.424 0.040 +01° 40' 48.10" 1.000E-01 0.600 F 0.621 -0.474 20.1 V 0.70 0.42 i 691 0.80 Yes Yes
1999RJ27 O C 1999-09-07.22529 1.000E-05 00:01:46.650 1.500E-01 0.600 F -0.424 0.734 +00° 59' 35.50" 1.000E-01 0.600 F 0.621 0.346 19.3 V 0.70 -0.35 i 691 1.38 Yes Yes
1999RJ27 O C 1999-09-07.22974 1.000E-05 00:01:46.210 1.500E-01 0.600 F -0.424 0.067 +00° 59' 22.00" 1.000E-01 0.600 F 0.621 -0.168 19.6 V 0.70 -0.05 i 691 0.30 Yes Yes
1999RJ27 O C 1999-09-07.45818 1.000E-05 00:01:25.640 1.500E-01 0.600 F -0.161 0.089 +00° 48' 15.60" 1.000E-01 0.600 F 0.390 0.146 20.1 V 0.70 0.45 i 691 0.29 Yes Yes
1999RJ27 O C 1999-09-07.46288 1.000E-05 00:01:25.220 1.500E-01 0.600 F -0.161 0.086 +00° 48' 02.00" 1.000E-01 0.600 F 0.390 0.254 20.2 V 0.70 0.55 i 691 0.45 Yes Yes
1999RH33 O C 1999-09-10.42343 1.000E-05 23:33:06.960 1.500E-01 0.600 F -0.372 -0.100 -03° 26' 41.30" 1.000E-01 0.600 F 0.241 0.827 20.3 V 0.70 0.16 i 691 1.39 Yes Yes
1999RH33 O C 1999-09-10.42882 1.000E-05 23:33:06.580 1.500E-01 0.600 F -0.372 0.330 -03° 26' 47.40" 1.000E-01 0.600 F 0.241 0.596 20.6 V 0.70 0.46 i 691 1.14 Yes Yes
1999RH33 O C 1999-09-10.43437 1.000E-05 23:33:06.140 1.500E-01 0.600 F -0.372 0.037 -03° 26' 53.50" 1.000E-01 0.600 F 0.241 0.539 20.8 V 0.70 0.66 i 691 0.90 Yes Yes
1996BZ3 O C 1999-09-17.22097 1.000E-05 23:06:42.080 1.500E-01 0.600 F -0.332 0.035 -04° 40' 40.10" 1.000E-01 0.600 F -0.158 -0.143 20.8 V 0.70 0.09 i 691 0.25 Yes Yes
1996BZ3 O C 1999-09-17.24199 1.000E-05 23:06:40.640 1.500E-01 0.600 F -0.332 -0.128 -04° 40' 50.60" 1.000E-01 0.600 F -0.158 0.247 20.8 V 0.70 0.09 i 691 0.46 Yes Yes
1996BZ3 O C 1999-09-17.26322 1.000E-05 23:06:39.200 1.500E-01 0.600 F -0.332 -0.049 -04° 41' 01.60" 1.000E-01 0.600 F -0.158 0.237 20.9 V 0.70 0.19 i 691 0.40 Yes Yes
1999RH33 O C 1999-09-18.34432 1.000E-05 23:23:22.860 1.500E-01 0.600 F -0.517 -1.131 -05° 50' 57.60" 1.000E-01 0.600 F 0.597 1.822 21.0 V 0.70 0.84 i 691 3.56 No Yes
1999RH33 O C 1999-09-18.34839 1.000E-05 23:23:22.660 1.500E-01 0.600 F -0.517 0.568 -05° 51' 01.80" 1.000E-01 0.600 F 0.597 2.008 20.5 V 0.70 0.34 i 691 3.46 No Yes
1999SK10 O C 1999-09-30.44708 1.000E-05 02:55:46.900 1.500E-01 0.600 F 0.285 0.056 +16° 21' 01.40" 1.000E-01 0.600 F 0.028 0.267 19.8 V 0.70 -0.20 b 691 0.45 Yes Yes
1999SK10 O C 1999-09-30.47161 1.000E-05 02:55:48.890 1.500E-01 0.600 F 0.285 0.203 +16° 20' 49.70" 1.000E-01 0.600 F 0.028 0.153 19.9 V 0.70 -0.09 b 691 0.42 Yes Yes
1999SK10 O C 1999-09-30.49446 1.000E-05 02:55:50.730 1.500E-01 0.600 F 0.285 0.013 +16° 20' 39.10" 1.000E-01 0.600 F 0.028 0.453 19.9 V 0.70 -0.09 b 691 0.76 Yes Yes
1999RJ27 O C 1999-10-01.27503 1.000E-05 23:30:55.490 1.500E-01 0.600 F -0.623 0.358 -15° 03' 59.10" 1.000E-01 0.600 F 0.160 0.009 19.9 V 0.70 -0.50 b 691 0.61 Yes Yes
1999RJ27 O C 1999-10-01.28397 1.000E-05 23:30:54.950 1.500E-01 0.600 F -0.623 0.520 -15° 04' 14.30" 1.000E-01 0.600 F 0.160 -0.182 19.7 V 0.70 -0.70 b 691 0.93 Yes Yes
1999RJ27 O C 1999-10-01.29156 1.000E-05 23:30:54.470 1.500E-01 0.600 F -0.623 0.340 -15° 04' 27.00" 1.000E-01 0.600 F 0.160 -0.151 19.9 V 0.70 -0.50 b 691 0.63 Yes Yes
1999SK10 O C 1999-10-01.48775 1.000E-05 02:57:17.460 1.500E-01 0.600 F 0.150 0.015 +16° 12' 39.00" 1.000E-01 0.600 F 0.204 -0.423 19.2 V 0.70 -0.73 b 691 0.71 Yes Yes
1999SK10 O C 1999-10-01.49589 1.000E-05 02:57:18.100 1.500E-01 0.600 F 0.150 -0.288 +16° 12' 34.80" 1.000E-01 0.600 F 0.204 -0.424 19.3 V 0.70 -0.63 b 691 0.86 Yes Yes
1999SK10 O C 1999-10-01.50385 1.000E-05 02:57:18.750 1.500E-01 0.600 F 0.150 -0.257 +16° 12' 30.70" 1.000E-01 0.600 F 0.204 -0.405 19.3 V 0.70 -0.63 b 691 0.80 Yes Yes
1999SK10 O C 1999-10-03.33198 1.000E-05 02:59:59.580 1.500E-01 0.600 F -0.145 0.303 +15° 56' 10.40" 1.000E-01 0.600 F 0.335 -0.262 19.4 V 0.70 -0.41 b 691 0.67 Yes Yes
1999SK10 O C 1999-10-03.33613 1.000E-05 02:59:59.910 1.500E-01 0.600 F -0.145 0.234 +15° 56' 08.00" 1.000E-01 0.600 F 0.335 -0.337 19.4 V 0.70 -0.41 b 691 0.68 Yes Yes
1999SK10 O C 1999-10-03.34011 1.000E-05 03:00:00.240 1.500E-01 0.600 F -0.145 0.367 +15° 56' 05.80" 1.000E-01 0.600 F 0.335 -0.304 19.4 V 0.70 -0.41 b 691 0.79 Yes Yes
1999TY2 O C a 1999-10-05.08456 1.000E-05 00:39:01.470 1.500E-01 0.735 F 0.007 -0.600 +14° 02' 09.70" 1.000E-01 0.735 F -0.357 3.059 b 691 4.15 No No
1999TY2 O C a 1999-10-05.08897 1.000E-05 00:39:08.180 1.500E-01 0.735 F 0.007 1.204 +13° 59' 51.90" 1.000E-01 0.735 F -0.357 1.682 b 691 2.88 Yes No
1999TY2 O C 1999-10-05.09346 1.000E-05 00:39:14.870 1.500E-01 0.735 F 0.007 0.985 +13° 57' 32.80" 1.000E-01 0.735 F -0.357 1.761 b 691 2.81 Yes No
1999TY2 O C 1999-10-05.10219 1.000E-05 00:39:27.920 1.500E-01 0.735 F 0.007 1.188 +13° 53' 01.80" 1.000E-01 0.735 F -0.357 2.187 b 691 3.32 No No
1999RH33 O C 1999-10-05.11949 1.000E-05 23:05:22.510 1.500E-01 0.600 F -0.086 0.136 -10° 20' 21.10" 1.000E-01 0.600 F -0.149 0.753 21.2 V 0.70 0.42 b 691 1.28 Yes Yes
1999RH33 O C 1999-10-05.12352 1.000E-05 23:05:22.320 1.500E-01 0.600 F -0.086 0.522 -10° 20' 25.60" 1.000E-01 0.600 F -0.149 -0.490 20.9 V 0.70 0.12 b 691 1.20 Yes Yes
1998NU O C 1999-10-05.13112 1.000E-05 23:27:02.960 1.500E-01 0.600 F -0.290 0.157 +00° 11' 39.50" 1.000E-01 0.600 F -0.117 -0.006 20.7 V 0.70 -0.20 b 691 0.26 Yes Yes
1998NU O C 1999-10-05.13489 1.000E-05 23:27:02.780 1.500E-01 0.600 F -0.290 0.356 +00° 11' 38.20" 1.000E-01 0.600 F -0.117 -0.050 20.7 V 0.70 -0.20 b 691 0.60 Yes Yes
1998NU O C 1999-10-05.13893 1.000E-05 23:27:02.560 1.500E-01 0.600 F -0.290 0.164 +00° 11' 37.20" 1.000E-01 0.600 F -0.117 0.296 20.7 V 0.70 -0.20 b 691 0.57 Yes Yes
1999TY2 O C 1999-10-05.15040 1.000E-05 00:40:39.910 1.500E-01 0.735 F 0.077 0.941 +13° 27' 42.60" 1.000E-01 0.735 F 0.097 1.322 b 691 2.26 Yes No
1999RJ27 O C 1999-10-05.16461 1.000E-05 23:27:33.610 1.500E-01 0.600 F 0.399 0.369 -16° 44' 45.80" 1.000E-01 0.600 F -0.448 1.295 20.7 V 0.70 0.07 b 691 2.25 Yes Yes
1999RJ27 O C 1999-10-05.16856 1.000E-05 23:27:33.410 1.500E-01 0.600 F 0.399 0.401 -16° 44' 52.40" 1.000E-01 0.600 F -0.448 0.384 20.9 V 0.70 0.27 b 691 0.93 Yes Yes
1999TY2 O C 1999-10-05.17900 1.000E-05 00:41:22.690 1.500E-01 0.735 F 0.077 1.030 +13° 12' 25.40" 1.000E-01 0.735 F 0.097 1.511 b 691 2.54 Yes No
1999SK10 O C 1999-10-06.42672 1.000E-05 03:04:29.570 1.500E-01 0.600 F -0.011 -0.318 +15° 23' 19.90" 1.000E-01 0.600 F -0.681 0.571 20.0 V 0.70 0.40 b 691 1.09 Yes Yes
1999SK10 O C 1999-10-06.43079 1.000E-05 03:04:29.890 1.500E-01 0.600 F -0.011 -0.396 +15° 23' 16.70" 1.000E-01 0.600 F -0.681 0.260 19.9 V 0.70 0.30 b 691 0.79 Yes Yes
1999SK10 O C 1999-10-08.41742 1.000E-05 03:07:24.490 1.500E-01 0.600 F -0.011 -0.176 +14° 58' 28.60" 1.000E-01 0.600 F -0.681 1.429 19.8 V 0.70 0.33 b 691 2.40 Yes Yes
1999SK10 O C 1999-10-08.42142 1.000E-05 03:07:24.830 1.500E-01 0.600 F -0.011 0.116 +14° 58' 25.50" 1.000E-01 0.600 F -0.681 1.535 20.0 V 0.70 0.53 b 691 2.57 Yes Yes
1999TT16 O C 1999-10-09.21051 1.000E-05 23:16:55.820 1.500E-01 0.600 F -0.190 0.438 -01° 22' 25.20" 1.000E-01 0.600 F -0.247 0.138 19.9 V 0.70 -0.83 b 691 0.79 Yes Yes
1999TT16 O C 1999-10-09.23228 1.000E-05 23:16:52.800 1.500E-01 0.600 F -0.190 0.435 -01° 22' 40.60" 1.000E-01 0.600 F -0.247 0.443 19.8 V 0.70 -0.93 b 691 1.06 Yes Yes
1999TT16 O C 1999-10-09.25386 1.000E-05 23:16:49.800 1.500E-01 0.600 F -0.190 0.337 -01° 22' 56.20" 1.000E-01 0.600 F -0.247 0.407 20.2 V 0.70 -0.53 b 691 0.90 Yes Yes
1999TT16 O C 1999-10-10.15953 1.000E-05 23:14:49.090 1.500E-01 0.600 F -0.032 -0.288 -01° 33' 49.40" 1.000E-01 0.600 F -0.266 0.716 20.9 V 0.70 0.16 b 691 1.30 Yes Yes
1999TT16 O C 1999-10-10.16448 1.000E-05 23:14:48.370 1.500E-01 0.600 F -0.032 -0.825 -01° 33' 52.40" 1.000E-01 0.600 F -0.266 1.292 16.8 V 0.70 -3.94 b 691 2.58 Yes No
1999TT16 O C 1999-10-10.17008 1.000E-05 23:14:47.690 1.500E-01 0.600 F -0.032 0.590 -01° 33' 57.70" 1.000E-01 0.600 F -0.266 0.037 20.6 V 0.70 -0.14 b 691 1.01 Yes Yes
1998NU O C 1999-10-11.18225 1.000E-05 23:22:12.220 1.500E-01 0.600 F -0.315 0.073 -00° 20' 56.80" 1.000E-01 0.600 F -0.174 -0.618 20.3 V 0.70 -0.70 b 691 1.04 Yes Yes
1998NU O C 1999-10-11.20380 1.000E-05 23:22:11.210 1.500E-01 0.600 F -0.315 0.051 -00° 21' 03.10" 1.000E-01 0.600 F -0.174 -0.206 20.7 V 0.70 -0.30 b 691 0.35 Yes Yes
1998NU O C 1999-10-11.22526 1.000E-05 23:22:10.180 1.500E-01 0.600 F -0.315 -0.331 -00° 21' 09.60" 1.000E-01 0.600 F -0.174 -0.024 20.9 V 0.70 -0.10 b 691 0.55 Yes Yes
1999TU16 O C 1999-10-11.33202 1.000E-05 01:56:42.170 1.500E-01 0.600 F 0.364 -0.018 +14° 58' 03.60" 1.000E-01 0.600 F -0.098 -0.398 19.5 V 0.70 -0.89 b 691 0.75 Yes Yes
1999TU16 O C 1999-10-11.35408 1.000E-05 01:56:44.770 1.500E-01 0.600 F 0.364 -0.355 +14° 56' 36.20" 1.000E-01 0.600 F -0.098 0.013 19.3 V 0.70 -1.09 b 691 0.65 Yes Yes
1999TU16 O C 1999-10-11.38504 1.000E-05 01:56:48.480 1.500E-01 0.600 F 0.364 -0.022 +14° 54' 32.10" 1.000E-01 0.600 F -0.098 -0.601 20.1 V 0.70 -0.29 b 691 1.12 Yes Yes
1998OR2 O C 1999-10-12.23781 1.000E-05 00:48:10.380 1.500E-01 0.600 F -0.062 0.373 +03° 06' 47.90" 1.000E-01 0.600 F -0.263 -0.199 21.1 V 0.70 -0.14 b 691 0.70 Yes Yes
1998OR2 O C 1999-10-12.25862 1.000E-05 00:48:09.240 1.500E-01 0.600 F -0.062 0.378 +03° 06' 42.30" 1.000E-01 0.600 F -0.263 0.132 20.9 V 0.70 -0.34 b 691 0.67 Yes Yes
1998OR2 O C 1999-10-12.27971 1.000E-05 00:48:08.020 1.500E-01 0.600 F -0.062 -0.578 +03° 06' 36.10" 1.000E-01 0.600 F -0.263 -0.057 20.9 V 0.70 -0.34 b 691 0.97 Yes Yes
1999TU16 O C 1999-10-12.32476 1.000E-05 01:58:50.480 1.500E-01 0.600 F 0.076 1.093 +13° 51' 58.50" 1.000E-01 0.600 F -0.043 -0.563 20.2 V 0.70 -0.16 b 691 2.17 Yes Yes
2004EB O C 1999-10-12.32484 1.000E-05 01:58:57.270 1.500E-01 0.600 F 0.076 -0.382 +13° 51' 48.80" 1.000E-01 0.600 F -0.043 0.264 21.4 V 0.70 0.06 b 691 0.78 Yes Yes
1999TU16 O C 1999-10-12.32892 1.000E-05 01:58:50.880 1.500E-01 0.600 F 0.076 -0.134 +13° 51' 43.80" 1.000E-01 0.600 F -0.043 1.400 21.2 V 0.70 0.84 b 691 2.48 Yes Yes
2004EB O C 1999-10-12.32899 1.000E-05 01:58:57.000 1.500E-01 0.600 F 0.076 0.293 +13° 51' 48.20" 1.000E-01 0.600 F -0.043 -0.007 21.2 V 0.70 -0.14 b 691 0.50 Yes Yes
1999TU16 O C 1999-10-12.33315 1.000E-05 01:58:51.330 1.500E-01 0.600 F 0.076 -0.749 +13° 51' 25.20" 1.000E-01 0.600 F -0.043 -0.252 20.8 V 0.70 0.44 b 691 1.39 Yes Yes
2004EB O C 1999-10-12.33316 1.000E-05 01:58:56.630 1.500E-01 0.600 F 0.076 -0.466 +13° 51' 47.70" 1.000E-01 0.600 F -0.043 -0.175 21.3 V 0.70 -0.04 b 691 0.83 Yes Yes
1999TT16 O C 1999-10-13.15191 1.000E-05 23:08:11.040 1.500E-01 0.600 F 0.094 -0.084 -02° 09' 43.50" 1.000E-01 0.600 F -0.495 -0.034 20.9 V 0.70 0.15 b 691 0.16 Yes Yes
1999TT16 O C 1999-10-13.15926 1.000E-05 23:08:10.010 1.500E-01 0.600 F 0.094 -0.449 -02° 09' 47.90" 1.000E-01 0.600 F -0.495 0.834 20.4 V 0.70 -0.35 b 691 1.59 Yes Yes
1999TT16 O C 1999-10-13.16697 1.000E-05 23:08:08.940 1.500E-01 0.600 F 0.094 -0.665 -02° 09' 52.70" 1.000E-01 0.600 F -0.495 1.558 20.3 V 0.70 -0.45 b 691 2.84 Yes Yes
1999TU16 O C 1999-10-13.29681 1.000E-05 02:00:53.710 1.500E-01 0.600 F -0.164 0.151 +12° 46' 53.80" 1.000E-01 0.600 F -0.048 0.602 21.6 V 0.70 1.27 b 691 1.08 Yes Yes
1999TU16 O C 1999-10-13.30122 1.000E-05 02:00:54.320 1.500E-01 0.600 F -0.164 1.711 +12° 46' 36.80" 1.000E-01 0.600 F -0.048 1.324 21.3 V 0.70 0.97 b 691 3.48 No Yes
1999TU16 O C 1999-10-13.30523 1.000E-05 02:00:54.710 1.500E-01 0.600 F -0.164 0.725 +12° 46' 19.70" 1.000E-01 0.600 F -0.048 0.342 21.0 V 0.70 0.67 b 691 1.39 Yes Yes
Nereus O C H 1999-10-15.08417 1.000E-05 21:00:43.950 1.500E-01 0.600 F 0.489 -0.455 -15° 38' 45.80" 1.000E-01 0.600 F 0.258 1.129 21.8 V 0.70 1.03 b 691 2.03 Yes Yes
Nereus O C H 1999-10-15.10606 1.000E-05 21:00:44.200 1.500E-01 0.600 F 0.489 -1.081 -15° 38' 44.10" 1.000E-01 0.600 F 0.258 1.024 21.7 V 0.70 0.93 b 691 2.48 Yes Yes
Nereus O C H 1999-10-15.12791 1.000E-05 21:00:44.590 1.500E-01 0.600 F 0.489 0.316 -15° 38' 41.60" 1.000E-01 0.600 F 0.258 1.678 22.3 V 0.70 1.53 b 691 2.85 Yes Yes
1999RJ27 O C H 1999-10-15.23573 1.000E-05 23:21:51.800 1.500E-01 0.600 F 0.497 1.607 -19° 55' 00.70" 1.000E-01 0.600 F -0.199 0.779 22.4 V 0.70 1.22 b 691 3.00 Yes Yes
1999RJ27 O C H 1999-10-15.27064 1.000E-05 23:21:50.850 1.500E-01 0.600 F 0.497 0.303 -19° 55' 31.20" 1.000E-01 0.600 F -0.199 0.036 22.1 V 0.70 0.92 b 691 0.51 Yes Yes
1999TT16 O C 1999-10-15.27686 1.000E-05 23:03:31.790 1.500E-01 0.600 F -0.084 -0.160 -02° 34' 54.00" 1.000E-01 0.600 F -0.371 -0.608 21.9 V 0.70 1.14 b 691 1.06 Yes Yes
1999TT16 O C 1999-10-15.28271 1.000E-05 23:03:31.000 1.500E-01 0.600 F -0.084 -0.202 -02° 34' 57.80" 1.000E-01 0.600 F -0.371 -0.294 22.4 V 0.70 1.64 b 691 0.61 Yes Yes
1999TT16 O C 1999-10-15.29012 1.000E-05 23:03:30.030 1.500E-01 0.600 F -0.084 0.191 -02° 35' 03.10" 1.000E-01 0.600 F -0.371 -0.385 21.7 V 0.70 0.94 b 691 0.72 Yes Yes
1999RJ27 O C H 1999-10-15.30196 1.000E-05 23:21:50.180 1.500E-01 0.600 F 0.497 1.544 -19° 55' 56.80" 1.000E-01 0.600 F -0.199 0.957 22.0 V 0.70 0.82 b 691 3.05 Yes Yes
1999TU16 O C H 1999-10-15.34982 1.000E-05 02:05:04.640 1.500E-01 0.600 F 0.141 -0.038 +10° 28' 51.40" 1.000E-01 0.600 F -0.030 0.614 21.6 V 0.70 1.32 b 691 1.08 Yes Yes
1999TU16 O C H 1999-10-15.35491 1.000E-05 02:05:05.200 1.500E-01 0.600 F 0.141 0.070 +10° 28' 29.60" 1.000E-01 0.600 F -0.030 -0.629 21.1 V 0.70 0.82 b 691 1.11 Yes Yes
1999TU16 O C H 1999-10-15.35907 1.000E-05 02:05:05.630 1.500E-01 0.600 F 0.141 -0.252 +10° 28' 13.80" 1.000E-01 0.600 F -0.030 0.376 21.2 V 0.70 0.92 b 691 0.79 Yes Yes
1999SK10 O C 1999-10-15.36518 1.000E-05 03:17:46.110 1.500E-01 0.600 F 0.170 -0.012 +13° 04' 59.60" 1.000E-01 0.600 F 0.022 -0.267 19.0 V 0.70 0.02 b 691 0.45 Yes Yes
1999SK10 O C 1999-10-15.36927 1.000E-05 03:17:46.440 1.500E-01 0.600 F 0.170 -0.083 +13° 04' 54.80" 1.000E-01 0.600 F 0.022 -0.254 19.1 V 0.70 0.12 b 691 0.45 Yes Yes
1999SK10 O C 1999-10-15.37355 1.000E-05 03:17:46.800 1.500E-01 0.600 F 0.170 0.058 +13° 04' 49.60" 1.000E-01 0.600 F 0.022 -0.413 19.2 V 0.70 0.22 b 691 0.70 Yes Yes
1998NU O C 1999-10-16.17748 1.000E-05 23:18:36.610 1.500E-01 0.600 F -0.315 0.282 -00° 45' 52.40" 1.000E-01 0.600 F -0.173 0.013 21.7 V 0.70 0.61 b 691 0.47 Yes Yes
1998NU O C 1999-10-16.19080 1.000E-05 23:18:36.040 1.500E-01 0.600 F -0.190 -0.016 -00° 45' 56.40" 1.000E-01 0.600 F -0.247 -0.096 21.9 V 0.70 0.81 b 691 0.16 Yes Yes
1998NU O C 1999-10-16.20200 1.000E-05 23:18:35.600 1.500E-01 0.600 F -0.190 0.428 -00° 45' 59.10" 1.000E-01 0.600 F -0.247 0.414 21.3 V 0.70 0.21 b 691 0.99 Yes Yes
1999TT16 O C H 1999-10-30.10580 1.000E-05 22:35:00.800 1.500E-01 0.600 F -0.241 0.409 -05° 09' 01.30" 1.000E-01 0.600 F 0.214 0.137 21.0 V 0.70 0.15 b 691 0.74 Yes Yes
1999TT16 O C H 1999-10-30.10960 1.000E-05 22:35:00.350 1.500E-01 0.600 F -0.241 -0.540 -05° 09' 03.40" 1.000E-01 0.600 F 0.214 0.002 21.2 V 0.70 0.35 b 691 0.92 Yes Yes
1999TT16 O C H 1999-10-30.11731 1.000E-05 22:34:59.720 1.500E-01 0.600 F -0.241 1.765 -05° 09' 05.90" 1.000E-01 0.600 F 0.214 1.487 21.0 V 0.70 0.15 b 691 3.77 No Yes
1999TU16 O C H 1999-10-30.31573 1.000E-05 02:30:02.140 1.500E-01 0.600 F -1.006 0.443 -04° 43' 21.30" 1.000E-01 0.600 F -0.181 0.828 20.9 V 0.70 0.14 b 691 1.91 Yes Yes
1999TU16 O C H 1999-10-30.31964 1.000E-05 02:30:02.350 1.500E-01 0.600 F -1.006 -0.594 -04° 43' 34.30" 1.000E-01 0.600 F -0.181 -0.341 20.6 V 0.70 -0.16 b 691 1.39 Yes Yes
1999TU16 O C H 1999-10-30.32340 1.000E-05 02:30:02.680 1.500E-01 0.600 F -1.006 0.322 -04° 43' 45.70" 1.000E-01 0.600 F -0.181 -0.366 21.5 V 0.70 0.74 b 691 1.00 Yes Yes
1995UO5 O C H 1999-10-30.39214 1.000E-05 02:42:31.290 1.500E-01 0.600 F 0.158 0.609 +17° 57' 08.60" 1.000E-01 0.600 F 0.045 0.938 19.7 V 0.70 0.64 b 691 1.88 Yes Yes
1995UO5 O C H 1999-10-30.41375 1.000E-05 02:42:27.820 1.500E-01 0.600 F 0.158 -0.029 +17° 57' 15.00" 1.000E-01 0.600 F 0.045 0.923 19.7 V 0.70 0.64 b 691 1.55 Yes Yes
1995UO5 O C H 1999-10-30.43534 1.000E-05 02:42:24.440 1.500E-01 0.600 F 0.158 0.516 +17° 57' 21.70" 1.000E-01 0.600 F 0.045 1.250 20.6 V 0.70 1.54 b 691 2.27 Yes Yes
1999VX15 O C 1999-11-02.20239 1.000E-05 01:31:29.190 1.500E-01 0.600 F -0.135 0.065 +14° 02' 54.70" 1.000E-01 0.600 F 0.257 -0.004 21.1 V 0.70 -0.03 b 691 0.12 Yes Yes
1999VX15 O C 1999-11-02.23692 1.000E-05 01:31:26.830 1.500E-01 0.600 F -0.135 0.226 +14° 02' 25.70" 1.000E-01 0.600 F 0.257 -0.305 21.4 V 0.70 0.27 b 691 0.64 Yes Yes
1999VX15 O C 1999-11-02.25910 1.000E-05 01:31:25.310 1.500E-01 0.600 F -0.135 0.293 +14° 02' 07.50" 1.000E-01 0.600 F 0.257 -0.027 21.2 V 0.70 0.07 b 691 0.51 Yes Yes
1999VX15 O C 1999-11-03.20123 1.000E-05 01:30:23.530 1.500E-01 0.600 F -0.135 -0.108 +13° 48' 58.50" 1.000E-01 0.600 F 0.257 -0.423 21.3 V 0.70 0.16 b 691 0.74 Yes Yes
1999VX15 O C 1999-11-03.22272 1.000E-05 01:30:22.060 1.500E-01 0.600 F -0.135 -0.168 +13° 48' 40.90" 1.000E-01 0.600 F 0.257 -0.030 20.9 V 0.70 -0.24 b 691 0.30 Yes Yes
1999VX15 O C 1999-11-03.24599 1.000E-05 01:30:20.490 1.500E-01 0.600 F -0.135 0.107 +13° 48' 21.00" 1.000E-01 0.600 F 0.257 -0.413 21.2 V 0.70 0.06 b 691 0.72 Yes Yes
1999SE10 O C H 1999-11-04.14860 1.000E-05 00:45:45.430 1.500E-01 0.600 F 0.043 0.221 +01° 40' 49.70" 1.000E-01 0.600 F -0.201 0.776 19.9 V 0.70 1.26 b 691 1.40 Yes Yes
1999SE10 O C H 1999-11-04.17134 1.000E-05 00:45:47.840 1.500E-01 0.600 F 0.043 0.500 +01° 41' 54.10" 1.000E-01 0.600 F -0.201 -0.477 19.7 V 0.70 1.06 b 691 1.19 Yes Yes
1999SE10 O C H 1999-11-04.19244 1.000E-05 00:45:50.110 1.500E-01 0.600 F 0.043 1.420 +01° 42' 55.10" 1.000E-01 0.600 F -0.201 -0.378 19.6 V 0.70 0.96 b 691 2.53 Yes Yes
1999SE10 O C H 1999-11-05.20342 1.000E-05 00:47:48.670 1.500E-01 0.600 F 0.000 -1.780 +02° 31' 28.30" 1.000E-01 0.600 F -0.243 0.296 19.6 V 0.70 0.94 b 691 3.10 Yes Yes
2010VA1 O C 1999-11-05.20508 1.000E-05 00:50:12.750 1.500E-01 0.600 F -0.144 0.180 +02° 39' 02.30" 1.000E-01 0.600 F -0.227 0.322 21.1 V 0.70 0.71 b 691 0.62 Yes Yes
1999SE10 O C H 1999-11-05.22457 1.000E-05 00:47:50.960 1.500E-01 0.600 F 0.000 -1.217 +02° 32' 29.40" 1.000E-01 0.600 F -0.243 0.557 19.5 V 0.70 0.84 b 691 2.30 Yes Yes
2010VA1 O C 1999-11-05.22619 1.000E-05 00:50:12.130 1.500E-01 0.600 F -0.144 0.469 +02° 38' 38.50" 1.000E-01 0.600 F -0.227 -0.071 21.0 V 0.70 0.61 b 691 0.80 Yes Yes
1999SE10 O C H 1999-11-05.24677 1.000E-05 00:47:53.360 1.500E-01 0.600 F 0.000 -0.710 +02° 33' 33.40" 1.000E-01 0.600 F -0.243 0.727 19.5 V 0.70 0.84 b 691 1.75 Yes Yes
2010VA1 O C 1999-11-05.24837 1.000E-05 00:50:11.430 1.500E-01 0.600 F -0.144 0.017 +02° 38' 14.30" 1.000E-01 0.600 F -0.227 0.310 20.9 V 0.70 0.51 b 691 0.52 Yes Yes
1999VX15 O C H 1999-11-06.26306 1.000E-05 01:27:05.680 1.500E-01 0.600 F 0.345 -0.169 +13° 05' 44.60" 1.000E-01 0.600 F 0.003 0.888 21.0 V 0.70 -0.18 b 691 1.51 Yes Yes
1999VX15 O C H 1999-11-06.26772 1.000E-05 01:27:05.320 1.500E-01 0.600 F 0.345 -0.914 +13° 05' 39.90" 1.000E-01 0.600 F 0.003 0.172 21.3 V 0.70 0.12 b 691 1.60 Yes Yes
2006KA40 O C 1999-11-15.14292 1.000E-05 01:51:04.670 1.500E-01 0.600 F -0.234 0.163 +13° 29' 45.30" 1.000E-01 0.600 F -0.177 0.389 21.0 V 0.70 0.23 b 691 0.75 Yes Yes
2006KA40 O C 1999-11-15.16462 1.000E-05 01:51:04.170 1.500E-01 0.600 F -0.234 0.167 +13° 29' 34.00" 1.000E-01 0.600 F -0.177 0.067 21.5 V 0.70 0.73 b 691 0.35 Yes Yes
2006KA40 O C 1999-11-15.18935 1.000E-05 01:51:03.600 1.500E-01 0.600 F -0.234 0.249 +13° 29' 21.70" 1.000E-01 0.600 F -0.177 0.314 21.4 V 0.70 0.63 b 691 0.74 Yes Yes
Cerberus O C 1999-11-16.07239 1.000E-05 23:38:52.570 1.500E-01 0.600 F -0.497 0.086 -01° 47' 39.30" 1.000E-01 0.600 F 0.139 0.364 17.2 V 0.70 -0.54 b 691 0.62 Yes Yes
Cerberus O C 1999-11-16.09370 1.000E-05 23:38:51.660 1.500E-01 0.600 F -0.497 0.167 -01° 48' 11.70" 1.000E-01 0.600 F 0.139 0.185 17.2 V 0.70 -0.55 b 691 0.42 Yes Yes
Cerberus O C 1999-11-16.11487 1.000E-05 23:38:50.760 1.500E-01 0.600 F -0.497 0.351 -01° 48' 43.20" 1.000E-01 0.600 F 0.139 0.666 17.4 V 0.70 -0.35 b 691 1.26 Yes Yes
1999VX15 O C 1999-11-16.13176 1.000E-05 01:17:34.360 1.500E-01 0.600 F -0.022 -0.126 +10° 45' 23.60" 1.000E-01 0.600 F -0.183 0.145 22.0 V 0.70 0.71 b 691 0.32 Yes Yes
1999VX15 O C 1999-11-16.14763 1.000E-05 01:17:33.530 1.500E-01 0.600 F -0.022 0.155 +10° 45' 09.80" 1.000E-01 0.600 F -0.183 -0.425 22.0 V 0.70 0.71 b 691 0.76 Yes Yes
1999VX15 O C 1999-11-16.17321 1.000E-05 01:17:32.120 1.500E-01 0.600 F -0.022 -0.415 +10° 44' 48.60" 1.000E-01 0.600 F -0.183 -0.279 21.5 V 0.70 0.21 b 691 0.86 Yes Yes
2002VU94 O C 1999-11-29.30350 1.000E-05 03:57:24.980 1.500E-01 0.600 F -0.012 -0.910 +16° 55' 06.40" 1.000E-01 0.600 F -0.042 0.001 20.1 V 0.70 0.20 b 691 1.52 Yes Yes
2002VU94 O C 1999-11-29.32565 1.000E-05 03:57:23.450 1.500E-01 0.600 F -0.012 -0.927 +16° 55' 00.10" 1.000E-01 0.600 F -0.042 -0.129 20.1 V 0.70 0.19 b 691 1.56 Yes Yes
2002VU94 O C 1999-11-29.34752 1.000E-05 03:57:21.940 1.500E-01 0.600 F -0.012 -0.953 +16° 54' 54.00" 1.000E-01 0.600 F -0.042 -0.119 20.1 V 0.70 0.19 b 691 1.60 Yes Yes
1999WK11 O C 1999-11-30.33137 1.000E-05 03:49:05.380 1.500E-01 0.600 F -0.224 0.392 +17° 42' 54.30" 1.000E-01 0.600 F 0.008 -0.158 21.1 V 0.70 0.69 b 691 0.71 Yes Yes
1999WK11 O C 1999-11-30.35288 1.000E-05 03:49:03.600 1.500E-01 0.600 F -0.224 0.299 +17° 42' 53.30" 1.000E-01 0.600 F 0.008 -0.082 21.0 V 0.70 0.59 b 691 0.52 Yes Yes
1999WK11 O C 1999-11-30.37463 1.000E-05 03:49:01.810 1.500E-01 0.600 F -0.224 0.293 +17° 42' 52.00" 1.000E-01 0.600 F 0.008 -0.269 20.9 V 0.70 0.49 b 691 0.66 Yes Yes
1999WK11 O C 1999-12-02.29420 1.000E-05 03:46:30.270 1.500E-01 0.600 F -0.027 0.078 +17° 41' 26.30" 1.000E-01 0.600 F -0.273 -0.519 21.9 V 0.70 1.40 b 691 0.88 Yes Yes
1999WK11 O C 1999-12-02.29811 1.000E-05 03:46:29.950 1.500E-01 0.600 F -0.027 -0.021 +17° 41' 26.00" 1.000E-01 0.600 F -0.273 -0.645 21.3 V 0.70 0.80 b 691 1.08 Yes Yes
1999WK11 O C 1999-12-02.30217 1.000E-05 03:46:29.560 1.500E-01 0.600 F -0.027 -0.949 +17° 41' 26.40" 1.000E-01 0.600 F -0.273 -0.063 21.7 V 0.70 1.20 b 691 1.60 Yes Yes
1999VV O C H 1999-12-03.20819 1.000E-05 03:17:09.320 1.500E-01 0.600 F 0.116 0.071 +16° 34' 39.00" 1.000E-01 0.600 F -0.168 0.949 18.7 V 0.70 1.15 b 691 1.59 Yes Yes
1999VV O C H 1999-12-03.22966 1.000E-05 03:17:06.150 1.500E-01 0.600 F 0.116 -1.341 +16° 33' 44.60" 1.000E-01 0.600 F -0.168 1.498 19.2 V 0.70 1.65 b 691 3.33 No Yes
1999WK11 O C 1999-12-03.27460 1.000E-05 03:45:14.740 1.500E-01 0.600 F -0.027 0.261 +17° 40' 45.70" 1.000E-01 0.600 F -0.273 0.098 21.0 V 0.70 0.46 b 691 0.47 Yes Yes
1999WK11 O C 1999-12-03.27863 1.000E-05 03:45:14.450 1.500E-01 0.600 F -0.027 0.651 +17° 40' 44.90" 1.000E-01 0.600 F -0.273 -0.534 21.2 V 0.70 0.66 b 691 1.41 Yes Yes
1999WK11 O C 1999-12-03.28253 1.000E-05 03:45:14.120 1.500E-01 0.600 F -0.027 0.322 +17° 40' 44.80" 1.000E-01 0.600 F -0.273 -0.471 21.4 V 0.70 0.86 b 691 0.95 Yes Yes
1999WK11 O C H 1999-12-04.30624 1.000E-05 03:43:56.680 1.500E-01 0.600 F -0.027 1.147 +17° 40' 04.20" 1.000E-01 0.600 F -0.273 -0.031 21.5 V 0.70 0.92 b 691 1.93 Yes Yes
1999WK11 O C H 1999-12-04.31502 1.000E-05 03:43:56.050 1.500E-01 0.600 F -0.027 1.817 +17° 40' 04.50" 1.000E-01 0.600 F -0.273 0.637 21.4 V 0.70 0.82 b 691 3.18 No Yes
1999WK11 O C H 1999-12-04.32392 1.000E-05 03:43:55.320 1.500E-01 0.600 F -0.027 1.183 +17° 40' 03.50" 1.000E-01 0.600 F -0.273 0.014 b 691 1.99 Yes No
1999WK11 O C 1999-12-05.29695 1.000E-05 03:42:43.200 1.500E-01 0.600 F -0.027 0.345 +17° 39' 26.90" 1.000E-01 0.600 F -0.273 0.106 21.5 V 0.70 0.88 b 691 0.61 Yes Yes
1999WK11 O C 1999-12-05.30092 1.000E-05 03:42:42.890 1.500E-01 0.600 F -0.027 0.203 +17° 39' 26.10" 1.000E-01 0.600 F -0.273 -0.539 21.6 V 0.70 0.98 b 691 0.96 Yes Yes
1999WK11 O C 1999-12-05.30485 1.000E-05 03:42:42.610 1.500E-01 0.600 F -0.027 0.446 +17° 39' 26.20" 1.000E-01 0.600 F -0.273 -0.285 21.4 V 0.70 0.78 b 691 0.89 Yes Yes

[1-200] [201-400] [401-600] [601-800] [801-1000] [1001-1200] [1201-1400] [1401-1600] [1601-1800] [1801-2000] [2001-2200] [2201-2400] [2401-2600] [2601-2800] [2801-3000] [3001-3200] [3201-3400] [3401-3600] [3601-3800] [3801-4000] [4001-4200] [4201-4400] [4401-4600] [4601-4800] [4801-5000] [5001-5200] [5201-5400] [5401-5600] [5601-5800] [5801-6000] [6001-6200] [6201-6400] [6401-6600] [6601-6800] [6801-7000] [7001-7200] [7201-7400] [7401-7600] [7601-7800] [7801-8000] [8001-8200] [8201-8400] [8401-8600] [8601-8800] [8801-9000] [9001-9200] [9201-9400] [9401-9600] [9601-9800] [9801-10000] [10001-10200] [10201-10400] [10401-10600] [10601-10800] [10801-11000] [11001-11200] [11201-11400] [11401-11600] [11601-11800] [11801-12000] [12001-12200] [12201-12400] [12401-12600] [12601-12800] [12801-13000] [13001-13200] [13201-13400] [13401-13600] [13601-13800] [13801-14000] [14001-14200] [14201-14400] [14401-14600] [14601-14800] [14801-15000] [15001-15200] [15201-15400] [15401-15600] [15601-15800] [15801-16000] [16001-16200] [16201-16400] [16401-16600] [16601-16800] [16801-17000] [17001-17200] [17201-17400] [17401-17600] [17601-17800] [17801-18000] [18001-18200] [18201-18400] [18401-18600] [18601-18800] [18801-19000] [19001-19200] [19201-19400] [19401-19600] [19601-19800] [19801-20000] [20001-20200] [20201-20400] [20401-20600] [20601-20800] [20801-21000] [21001-21200] [21201-21400] [21401-21600] [21601-21800] [21801-22000] [22001-22200] [22201-22400] [22401-22600] [22601-22800] [22801-23000] [23001-23200] [23201-23400] [23401-23600] [23601-23800] [23801-24000] [24001-24200] [24201-24400] [24401-24600] [24601-24800] [24801-25000] [25001-25200] [25201-25400] [25401-25600] [25601-25800] [25801-26000] [26001-26200] [26201-26400] [26401-26600] [26601-26800] [26801-27000] [27001-27200] [27201-27400] [27401-27600] [27601-27800] [27801-28000] [28001-28200] [28201-28400] [28401-28600] [28601-28800] [28801-29000] [29001-29200] [29201-29400] [29401-29600] [29601-29800] [29801-30000] [30001-30200] [30201-30400] [30401-30600] [30601-30800] [30801-31000] [31001-31200] [31201-31400] [31401-31600] [31601-31800] [31801-32000] [32001-32200] [32201-32400] [32401-32600] [32601-32800] [32801-33000] [33001-33200] [33201-33400] [33401-33600] [33601-33800] [33801-34000] [34001-34200] [34201-34400] [34401-34600] [34601-34800] [34801-35000] [35001-35200] [35201-35400] [35401-35600] [35601-35800] [35801-36000] [36001-36200] [36201-36400] [36401-36600] [36601-36800] [36801-37000] [37001-37200] [37201-37400] [37401-37600] [37601-37800] [37801-38000] [38001-38200] [38201-38400] [38401-38600] [38601-38800] [38801-39000] [39001-39200] [39201-39400] [39401-39600] [39601-39800] [39801-40000] [40001-40200] [40201-40400] [40401-40600] [40601-40800] [40801-41000] [41001-41200] [41201-41400] [41401-41600] [41601-41800] [41801-42000] [42001-42200] [42201-42400] [42401-42600] [42601-42800] [42801-43000] [43001-43200] [43201-43400] [43401-43600] [43601-43800] [43801-44000] [44001-44200] [44201-44400] [44401-44600] [44601-44800] [44801-45000] [45001-45200] [45201-45400] [45401-45600] [45601-45800] [45801-46000] [46001-46200] [46201-46400] [46401-46600] [46601-46800] [46801-47000] [47001-47200] [47201-47400] [47401-47600] [47601-47800] [47801-48000] [48001-48200] [48201-48400] [48401-48600] [48601-48800] [48801-49000] [49001-49200] [49201-49400] [49401-49600] [49601-49800] [49801-50000] [50001-50200] [50201-50388]